sensor_id;sensor_type;location;lat;lon;timestamp;P1;P2;P0
80396;PMS5003;69721;55.894;-3.052;2023-05-16T00:01:12;2;2;
80396;PMS5003;69721;55.894;-3.052;2023-05-16T00:03:38;2;2;
80396;PMS5003;69721;55.894;-3.052;2023-05-16T00:06:04;5;3;
80396;PMS5003;69721;55.894;-3.052;2023-05-16T00:08:29;2;2;
80396;PMS5003;69721;55.894;-3.052;2023-05-16T00:10:54;4;2;
80396;PMS5003;69721;55.894;-3.052;2023-05-16T00:13:19;5;2;
80396;PMS5003;69721;55.894;-3.052;2023-05-16T00:15:45;2;2;
80396;PMS5003;69721;55.894;-3.052;2023-05-16T00:18:10;3;3;
80396;PMS5003;69721;55.894;-3.052;2023-05-16T00:20:36;2;2;
80396;PMS5003;69721;55.894;-3.052;2023-05-16T00:23:01;1;1;
80396;PMS5003;69721;55.894;-3.052;2023-05-16T00:25:27;3;3;
80396;PMS5003;69721;55.894;-3.052;2023-05-16T00:27:52;4;3;
80396;PMS5003;69721;55.894;-3.052;2023-05-16T00:30:18;2;2;
80396;PMS5003;69721;55.894;-3.052;2023-05-16T00:32:44;5;3;
80396;PMS5003;69721;55.894;-3.052;2023-05-16T00:35:09;3;1;
80396;PMS5003;69721;55.894;-3.052;2023-05-16T00:37:35;3;2;
80396;PMS5003;69721;55.894;-3.052;2023-05-16T00:40:00;5;4;
80396;PMS5003;69721;55.894;-3.052;2023-05-16T00:42:26;4;2;
80396;PMS5003;69721;55.894;-3.052;2023-05-16T00:44:51;3;2;
80396;PMS5003;69721;55.894;-3.052;2023-05-16T00:47:18;6;3;
80396;PMS5003;69721;55.894;-3.052;2023-05-16T00:49:43;1;1;
80396;PMS5003;69721;55.894;-3.052;2023-05-16T00:52:09;2;2;
80396;PMS5003;69721;55.894;-3.052;2023-05-16T00:54:34;3;3;
80396;PMS5003;69721;55.894;-3.052;2023-05-16T00:57:00;1;1;
80396;PMS5003;69721;55.894;-3.052;2023-05-16T00:59:25;6;6;
80396;PMS5003;69721;55.894;-3.052;2023-05-16T01:01:51;3;2;
80396;PMS5003;69721;55.894;-3.052;2023-05-16T01:04:17;1;1;
80396;PMS5003;69721;55.894;-3.052;2023-05-16T01:06:43;2;1;
80396;PMS5003;69721;55.894;-3.052;2023-05-16T01:09:08;2;2;
80396;PMS5003;69721;55.894;-3.052;2023-05-16T01:11:35;1;1;
80396;PMS5003;69721;55.894;-3.052;2023-05-16T01:14:02;4;3;
80396;PMS5003;69721;55.894;-3.052;2023-05-16T01:16:25;3;3;
80396;PMS5003;69721;55.894;-3.052;2023-05-16T01:18:52;3;2;
80396;PMS5003;69721;55.894;-3.052;2023-05-16T01:21:18;4;1;
80396;PMS5003;69721;55.894;-3.052;2023-05-16T01:23:48;4;4;
80396;PMS5003;69721;55.894;-3.052;2023-05-16T01:26:10;5;2;
80396;PMS5003;69721;55.894;-3.052;2023-05-16T01:28:33;6;4;
80396;PMS5003;69721;55.894;-3.052;2023-05-16T01:30:59;3;3;
80396;PMS5003;69721;55.894;-3.052;2023-05-16T01:33:24;4;3;
80396;PMS5003;69721;55.894;-3.052;2023-05-16T01:35:52;2;2;
80396;PMS5003;69721;55.894;-3.052;2023-05-16T01:38:17;4;2;
80396;PMS5003;69721;55.894;-3.052;2023-05-16T01:40:50;3;3;
80396;PMS5003;69721;55.894;-3.052;2023-05-16T01:43:07;2;2;
80396;PMS5003;69721;55.894;-3.052;2023-05-16T01:45:32;2;2;
80396;PMS5003;69721;55.894;-3.052;2023-05-16T01:47:59;1;1;
80396;PMS5003;69721;55.894;-3.052;2023-05-16T01:50:23;5;3;
80396;PMS5003;69721;55.894;-3.052;2023-05-16T01:52:49;5;3;
80396;PMS5003;69721;55.894;-3.052;2023-05-16T01:55:15;2;2;
80396;PMS5003;69721;55.894;-3.052;2023-05-16T01:57:40;6;3;
80396;PMS5003;69721;55.894;-3.052;2023-05-16T02:00:07;11;7;
80396;PMS5003;69721;55.894;-3.052;2023-05-16T02:02:32;3;3;
80396;PMS5003;69721;55.894;-3.052;2023-05-16T02:04:57;6;6;
80396;PMS5003;69721;55.894;-3.052;2023-05-16T02:07:23;2;2;
80396;PMS5003;69721;55.894;-3.052;2023-05-16T02:09:48;5;5;
80396;PMS5003;69721;55.894;-3.052;2023-05-16T02:12:14;4;4;
80396;PMS5003;69721;55.894;-3.052;2023-05-16T02:14:39;4;3;
80396;PMS5003;69721;55.894;-3.052;2023-05-16T02:17:05;6;2;
80396;PMS5003;69721;55.894;-3.052;2023-05-16T02:19:30;2;2;
80396;PMS5003;69721;55.894;-3.052;2023-05-16T02:21:55;2;2;
80396;PMS5003;69721;55.894;-3.052;2023-05-16T02:24:21;2;2;
80396;PMS5003;69721;55.894;-3.052;2023-05-16T02:26:46;5;2;
80396;PMS5003;69721;55.894;-3.052;2023-05-16T02:29:12;4;3;
80396;PMS5003;69721;55.894;-3.052;2023-05-16T02:31:37;2;2;
80396;PMS5003;69721;55.894;-3.052;2023-05-16T02:34:03;7;3;
80396;PMS5003;69721;55.894;-3.052;2023-05-16T02:36:28;4;3;
80396;PMS5003;69721;55.894;-3.052;2023-05-16T02:38:54;6;3;
80396;PMS5003;69721;55.894;-3.052;2023-05-16T02:41:19;6;5;
80396;PMS5003;69721;55.894;-3.052;2023-05-16T02:43:44;6;2;
80396;PMS5003;69721;55.894;-3.052;2023-05-16T02:48:35;5;5;
80396;PMS5003;69721;55.894;-3.052;2023-05-16T02:51:01;4;2;
80396;PMS5003;69721;55.894;-3.052;2023-05-16T02:53:26;4;4;
80396;PMS5003;69721;55.894;-3.052;2023-05-16T02:55:52;4;4;
80396;PMS5003;69721;55.894;-3.052;2023-05-16T02:58:17;5;4;
80396;PMS5003;69721;55.894;-3.052;2023-05-16T03:00:43;4;4;
80396;PMS5003;69721;55.894;-3.052;2023-05-16T03:03:08;4;4;
80396;PMS5003;69721;55.894;-3.052;2023-05-16T03:05:34;4;4;
80396;PMS5003;69721;55.894;-3.052;2023-05-16T03:07:59;3;3;
80396;PMS5003;69721;55.894;-3.052;2023-05-16T03:10:25;5;3;
80396;PMS5003;69721;55.894;-3.052;2023-05-16T03:12:51;4;3;
80396;PMS5003;69721;55.894;-3.052;2023-05-16T03:15:17;3;3;
80396;PMS5003;69721;55.894;-3.052;2023-05-16T03:17:42;3;3;
80396;PMS5003;69721;55.894;-3.052;2023-05-16T03:20:08;4;3;
80396;PMS5003;69721;55.894;-3.052;2023-05-16T03:22:33;5;5;
80396;PMS5003;69721;55.894;-3.052;2023-05-16T03:24:59;4;3;
80396;PMS5003;69721;55.894;-3.052;2023-05-16T03:27:25;6;3;
80396;PMS5003;69721;55.894;-3.052;2023-05-16T03:29:50;3;3;
80396;PMS5003;69721;55.894;-3.052;2023-05-16T03:32:15;5;4;
80396;PMS5003;69721;55.894;-3.052;2023-05-16T03:34:41;6;3;
80396;PMS5003;69721;55.894;-3.052;2023-05-16T03:37:06;7;6;
80396;PMS5003;69721;55.894;-3.052;2023-05-16T03:39:32;6;3;
80396;PMS5003;69721;55.894;-3.052;2023-05-16T03:41:57;6;4;
80396;PMS5003;69721;55.894;-3.052;2023-05-16T03:44:23;8;6;
80396;PMS5003;69721;55.894;-3.052;2023-05-16T03:46:48;8;5;
80396;PMS5003;69721;55.894;-3.052;2023-05-16T03:49:14;6;5;
80396;PMS5003;69721;55.894;-3.052;2023-05-16T03:51:39;5;5;
80396;PMS5003;69721;55.894;-3.052;2023-05-16T03:54:05;5;4;
80396;PMS5003;69721;55.894;-3.052;2023-05-16T03:56:30;5;4;
80396;PMS5003;69721;55.894;-3.052;2023-05-16T03:58:56;6;4;
80396;PMS5003;69721;55.894;-3.052;2023-05-16T04:01:22;5;4;
80396;PMS5003;69721;55.894;-3.052;2023-05-16T04:03:47;10;8;
80396;PMS5003;69721;55.894;-3.052;2023-05-16T04:06:13;6;4;
80396;PMS5003;69721;55.894;-3.052;2023-05-16T04:08:38;13;6;
80396;PMS5003;69721;55.894;-3.052;2023-05-16T04:11:04;12;5;
80396;PMS5003;69721;55.894;-3.052;2023-05-16T04:13:29;10;6;
80396;PMS5003;69721;55.894;-3.052;2023-05-16T04:15:55;4;3;
80396;PMS5003;69721;55.894;-3.052;2023-05-16T04:18:20;7;5;
80396;PMS5003;69721;55.894;-3.052;2023-05-16T04:20:46;7;6;
80396;PMS5003;69721;55.894;-3.052;2023-05-16T04:23:11;5;4;
80396;PMS5003;69721;55.894;-3.052;2023-05-16T04:25:37;4;4;
80396;PMS5003;69721;55.894;-3.052;2023-05-16T04:28:03;9;7;
80396;PMS5003;69721;55.894;-3.052;2023-05-16T04:30:28;9;8;
80396;PMS5003;69721;55.894;-3.052;2023-05-16T04:32:54;10;6;
80396;PMS5003;69721;55.894;-3.052;2023-05-16T04:35:19;9;6;
80396;PMS5003;69721;55.894;-3.052;2023-05-16T04:37:44;11;6;
80396;PMS5003;69721;55.894;-3.052;2023-05-16T04:40:11;5;3;
80396;PMS5003;69721;55.894;-3.052;2023-05-16T04:42:36;8;7;
80396;PMS5003;69721;55.894;-3.052;2023-05-16T04:45:02;5;5;
80396;PMS5003;69721;55.894;-3.052;2023-05-16T04:47:27;10;5;
80396;PMS5003;69721;55.894;-3.052;2023-05-16T04:49:52;6;4;
80396;PMS5003;69721;55.894;-3.052;2023-05-16T04:52:18;10;7;
80396;PMS5003;69721;55.894;-3.052;2023-05-16T04:54:43;11;7;
80396;PMS5003;69721;55.894;-3.052;2023-05-16T04:57:08;11;10;
80396;PMS5003;69721;55.894;-3.052;2023-05-16T04:59:34;7;6;
80396;PMS5003;69721;55.894;-3.052;2023-05-16T05:01:59;12;8;
80396;PMS5003;69721;55.894;-3.052;2023-05-16T05:04:25;9;6;
80396;PMS5003;69721;55.894;-3.052;2023-05-16T05:06:50;8;6;
80396;PMS5003;69721;55.894;-3.052;2023-05-16T05:09:16;10;6;
80396;PMS5003;69721;55.894;-3.052;2023-05-16T05:11:42;9;8;
80396;PMS5003;69721;55.894;-3.052;2023-05-16T05:14:08;7;5;
80396;PMS5003;69721;55.894;-3.052;2023-05-16T05:16:33;10;7;
80396;PMS5003;69721;55.894;-3.052;2023-05-16T05:18:58;8;6;
80396;PMS5003;69721;55.894;-3.052;2023-05-16T05:21:24;9;7;
80396;PMS5003;69721;55.894;-3.052;2023-05-16T05:23:49;8;8;
80396;PMS5003;69721;55.894;-3.052;2023-05-16T05:26:15;11;8;
80396;PMS5003;69721;55.894;-3.052;2023-05-16T05:28:40;7;5;
80396;PMS5003;69721;55.894;-3.052;2023-05-16T05:31:06;5;5;
80396;PMS5003;69721;55.894;-3.052;2023-05-16T05:33:31;10;6;
80396;PMS5003;69721;55.894;-3.052;2023-05-16T05:35:57;9;7;
80396;PMS5003;69721;55.894;-3.052;2023-05-16T05:38:22;9;8;
80396;PMS5003;69721;55.894;-3.052;2023-05-16T05:40:48;7;7;
80396;PMS5003;69721;55.894;-3.052;2023-05-16T05:43:13;7;5;
80396;PMS5003;69721;55.894;-3.052;2023-05-16T05:45:39;10;8;
80396;PMS5003;69721;55.894;-3.052;2023-05-16T05:48:05;10;8;
80396;PMS5003;69721;55.894;-3.052;2023-05-16T05:50:30;9;8;
80396;PMS5003;69721;55.894;-3.052;2023-05-16T05:52:55;12;9;
80396;PMS5003;69721;55.894;-3.052;2023-05-16T05:55:21;13;11;
80396;PMS5003;69721;55.894;-3.052;2023-05-16T05:57:46;7;7;
80396;PMS5003;69721;55.894;-3.052;2023-05-16T06:00:12;14;7;
80396;PMS5003;69721;55.894;-3.052;2023-05-16T06:02:37;11;8;
80396;PMS5003;69721;55.894;-3.052;2023-05-16T06:05:02;17;12;
80396;PMS5003;69721;55.894;-3.052;2023-05-16T06:07:28;10;8;
80396;PMS5003;69721;55.894;-3.052;2023-05-16T06:09:53;14;7;
80396;PMS5003;69721;55.894;-3.052;2023-05-16T06:12:19;15;9;
80396;PMS5003;69721;55.894;-3.052;2023-05-16T06:14:45;11;10;
80396;PMS5003;69721;55.894;-3.052;2023-05-16T06:17:10;13;8;
80396;PMS5003;69721;55.894;-3.052;2023-05-16T06:19:35;11;8;
80396;PMS5003;69721;55.894;-3.052;2023-05-16T06:22:01;12;7;
80396;PMS5003;69721;55.894;-3.052;2023-05-16T06:24:26;14;7;
80396;PMS5003;69721;55.894;-3.052;2023-05-16T06:26:52;11;6;
80396;PMS5003;69721;55.894;-3.052;2023-05-16T06:29:17;13;6;
80396;PMS5003;69721;55.894;-3.052;2023-05-16T06:31:43;13;7;
80396;PMS5003;69721;55.894;-3.052;2023-05-16T06:34:07;12;9;
80396;PMS5003;69721;55.894;-3.052;2023-05-16T06:36:33;7;6;
80396;PMS5003;69721;55.894;-3.052;2023-05-16T06:38:58;8;7;
80396;PMS5003;69721;55.894;-3.052;2023-05-16T06:41:24;14;7;
80396;PMS5003;69721;55.894;-3.052;2023-05-16T06:43:49;11;7;
80396;PMS5003;69721;55.894;-3.052;2023-05-16T06:46:14;8;6;
80396;PMS5003;69721;55.894;-3.052;2023-05-16T06:48:41;10;10;
80396;PMS5003;69721;55.894;-3.052;2023-05-16T06:51:06;10;7;
80396;PMS5003;69721;55.894;-3.052;2023-05-16T06:53:32;12;6;
80396;PMS5003;69721;55.894;-3.052;2023-05-16T06:55:57;13;13;
80396;PMS5003;69721;55.894;-3.052;2023-05-16T06:58:22;19;13;
80396;PMS5003;69721;55.894;-3.052;2023-05-16T07:00:48;19;12;
80396;PMS5003;69721;55.894;-3.052;2023-05-16T07:03:13;7;7;
80396;PMS5003;69721;55.894;-3.052;2023-05-16T07:05:38;13;7;
80396;PMS5003;69721;55.894;-3.052;2023-05-16T07:08:04;7;7;
80396;PMS5003;69721;55.894;-3.052;2023-05-16T07:10:30;12;7;
80396;PMS5003;69721;55.894;-3.052;2023-05-16T07:12:55;10;6;
80396;PMS5003;69721;55.894;-3.052;2023-05-16T07:15:21;11;9;
80396;PMS5003;69721;55.894;-3.052;2023-05-16T07:17:46;12;8;
80396;PMS5003;69721;55.894;-3.052;2023-05-16T07:20:11;9;6;
80396;PMS5003;69721;55.894;-3.052;2023-05-16T07:22:37;12;7;
80396;PMS5003;69721;55.894;-3.052;2023-05-16T07:25:02;10;7;
80396;PMS5003;69721;55.894;-3.052;2023-05-16T07:27:27;14;8;
80396;PMS5003;69721;55.894;-3.052;2023-05-16T07:29:53;12;6;
80396;PMS5003;69721;55.894;-3.052;2023-05-16T07:32:18;10;7;
80396;PMS5003;69721;55.894;-3.052;2023-05-16T07:34:43;8;6;
80396;PMS5003;69721;55.894;-3.052;2023-05-16T07:37:09;9;7;
80396;PMS5003;69721;55.894;-3.052;2023-05-16T07:39:34;6;6;
80396;PMS5003;69721;55.894;-3.052;2023-05-16T07:42:00;7;6;
80396;PMS5003;69721;55.894;-3.052;2023-05-16T07:44:25;7;5;
80396;PMS5003;69721;55.894;-3.052;2023-05-16T07:46:50;7;5;
80396;PMS5003;69721;55.894;-3.052;2023-05-16T07:49:16;6;4;
80396;PMS5003;69721;55.894;-3.052;2023-05-16T07:51:41;8;6;
80396;PMS5003;69721;55.894;-3.052;2023-05-16T07:54:06;5;4;
80396;PMS5003;69721;55.894;-3.052;2023-05-16T07:56:32;11;6;
80396;PMS5003;69721;55.894;-3.052;2023-05-16T07:58:58;6;4;
80396;PMS5003;69721;55.894;-3.052;2023-05-16T08:01:23;10;4;
80396;PMS5003;69721;55.894;-3.052;2023-05-16T08:03:48;4;4;
80396;PMS5003;69721;55.894;-3.052;2023-05-16T08:06:14;7;5;
80396;PMS5003;69721;55.894;-3.052;2023-05-16T08:08:39;4;2;
80396;PMS5003;69721;55.894;-3.052;2023-05-16T08:11:04;4;4;
80396;PMS5003;69721;55.894;-3.052;2023-05-16T08:13:30;7;7;
80396;PMS5003;69721;55.894;-3.052;2023-05-16T08:15:55;7;4;
80396;PMS5003;69721;55.894;-3.052;2023-05-16T08:18:20;10;5;
80396;PMS5003;69721;55.894;-3.052;2023-05-16T08:20:46;11;6;
80396;PMS5003;69721;55.894;-3.052;2023-05-16T08:23:12;5;3;
80396;PMS5003;69721;55.894;-3.052;2023-05-16T08:25:37;6;4;
80396;PMS5003;69721;55.894;-3.052;2023-05-16T08:28:02;7;3;
80396;PMS5003;69721;55.894;-3.052;2023-05-16T08:30:27;4;4;
80396;PMS5003;69721;55.894;-3.052;2023-05-16T08:32:53;9;6;
80396;PMS5003;69721;55.894;-3.052;2023-05-16T08:35:19;5;5;
80396;PMS5003;69721;55.894;-3.052;2023-05-16T08:37:45;7;5;
80396;PMS5003;69721;55.894;-3.052;2023-05-16T08:40:11;5;3;
80396;PMS5003;69721;55.894;-3.052;2023-05-16T08:42:35;5;4;
80396;PMS5003;69721;55.894;-3.052;2023-05-16T08:45:01;7;5;
80396;PMS5003;69721;55.894;-3.052;2023-05-16T08:47:29;8;6;
80396;PMS5003;69721;55.894;-3.052;2023-05-16T08:49:53;6;4;
80396;PMS5003;69721;55.894;-3.052;2023-05-16T08:52:19;11;6;
80396;PMS5003;69721;55.894;-3.052;2023-05-16T08:54:44;5;3;
80396;PMS5003;69721;55.894;-3.052;2023-05-16T08:57:09;7;5;
80396;PMS5003;69721;55.894;-3.052;2023-05-16T08:59:35;5;5;
80396;PMS5003;69721;55.894;-3.052;2023-05-16T09:02:00;4;4;
80396;PMS5003;69721;55.894;-3.052;2023-05-16T09:04:25;5;5;
80396;PMS5003;69721;55.894;-3.052;2023-05-16T09:06:51;5;3;
80396;PMS5003;69721;55.894;-3.052;2023-05-16T09:09:16;7;4;
80396;PMS5003;69721;55.894;-3.052;2023-05-16T09:11:42;4;4;
80396;PMS5003;69721;55.894;-3.052;2023-05-16T09:14:08;7;5;
80396;PMS5003;69721;55.894;-3.052;2023-05-16T09:16:33;5;4;
80396;PMS5003;69721;55.894;-3.052;2023-05-16T09:18:59;5;4;
80396;PMS5003;69721;55.894;-3.052;2023-05-16T09:21:25;7;5;
80396;PMS5003;69721;55.894;-3.052;2023-05-16T09:23:49;6;5;
80396;PMS5003;69721;55.894;-3.052;2023-05-16T09:26:15;4;4;
80396;PMS5003;69721;55.894;-3.052;2023-05-16T09:28:40;5;4;
80396;PMS5003;69721;55.894;-3.052;2023-05-16T09:33:31;4;4;
80396;PMS5003;69721;55.894;-3.052;2023-05-16T09:35:56;9;4;
80396;PMS5003;69721;55.894;-3.052;2023-05-16T09:38:22;7;6;
80396;PMS5003;69721;55.894;-3.052;2023-05-16T09:40:47;5;4;
80396;PMS5003;69721;55.894;-3.052;2023-05-16T09:43:14;8;5;
80396;PMS5003;69721;55.894;-3.052;2023-05-16T09:45:40;6;6;
80396;PMS5003;69721;55.894;-3.052;2023-05-16T09:48:07;5;5;
80396;PMS5003;69721;55.894;-3.052;2023-05-16T09:50:32;4;4;
80396;PMS5003;69721;55.894;-3.052;2023-05-16T09:52:58;8;5;
80396;PMS5003;69721;55.894;-3.052;2023-05-16T09:55:23;6;4;
80396;PMS5003;69721;55.894;-3.052;2023-05-16T09:57:49;6;4;
80396;PMS5003;69721;55.894;-3.052;2023-05-16T10:00:15;5;5;
80396;PMS5003;69721;55.894;-3.052;2023-05-16T10:02:39;7;5;
80396;PMS5003;69721;55.894;-3.052;2023-05-16T10:05:05;7;5;
80396;PMS5003;69721;55.894;-3.052;2023-05-16T10:07:30;7;5;
80396;PMS5003;69721;55.894;-3.052;2023-05-16T10:09:55;4;4;
80396;PMS5003;69721;55.894;-3.052;2023-05-16T10:12:21;4;4;
80396;PMS5003;69721;55.894;-3.052;2023-05-16T10:14:46;8;6;
80396;PMS5003;69721;55.894;-3.052;2023-05-16T10:17:13;6;5;
80396;PMS5003;69721;55.894;-3.052;2023-05-16T10:19:38;6;3;
80396;PMS5003;69721;55.894;-3.052;2023-05-16T10:22:03;5;4;
80396;PMS5003;69721;55.894;-3.052;2023-05-16T10:24:28;6;3;
80396;PMS5003;69721;55.894;-3.052;2023-05-16T10:26:53;5;4;
80396;PMS5003;69721;55.894;-3.052;2023-05-16T10:29:18;3;3;
80396;PMS5003;69721;55.894;-3.052;2023-05-16T10:31:43;4;4;
80396;PMS5003;69721;55.894;-3.052;2023-05-16T10:34:10;6;5;
80396;PMS5003;69721;55.894;-3.052;2023-05-16T10:36:35;5;3;
80396;PMS5003;69721;55.894;-3.052;2023-05-16T10:39:00;4;4;
80396;PMS5003;69721;55.894;-3.052;2023-05-16T10:41:26;3;3;
80396;PMS5003;69721;55.894;-3.052;2023-05-16T10:43:55;4;4;
80396;PMS5003;69721;55.894;-3.052;2023-05-16T10:46:18;5;3;
80396;PMS5003;69721;55.894;-3.052;2023-05-16T10:48:43;4;4;
80396;PMS5003;69721;55.894;-3.052;2023-05-16T10:53:34;4;2;
80396;PMS5003;69721;55.894;-3.052;2023-05-16T10:56:06;2;2;
80396;PMS5003;69721;55.894;-3.052;2023-05-16T10:58:29;2;2;
80396;PMS5003;69721;55.894;-3.052;2023-05-16T11:03:21;4;3;
80396;PMS5003;69721;55.894;-3.052;2023-05-16T11:05:41;4;2;
80396;PMS5003;69721;55.894;-3.052;2023-05-16T11:08:06;3;1;
80396;PMS5003;69721;55.894;-3.052;2023-05-16T11:10:31;2;2;
80396;PMS5003;69721;55.894;-3.052;2023-05-16T11:13:01;5;4;
80396;PMS5003;69721;55.894;-3.052;2023-05-16T11:15:23;3;3;
80396;PMS5003;69721;55.894;-3.052;2023-05-16T11:17:47;3;2;
80396;PMS5003;69721;55.894;-3.052;2023-05-16T11:22:38;2;2;
80396;PMS5003;69721;55.894;-3.052;2023-05-16T11:25:04;2;2;
80396;PMS5003;69721;55.894;-3.052;2023-05-16T11:27:29;4;4;
80396;PMS5003;69721;55.894;-3.052;2023-05-16T11:29:55;3;2;
80396;PMS5003;69721;55.894;-3.052;2023-05-16T11:32:20;5;4;
80396;PMS5003;69721;55.894;-3.052;2023-05-16T11:34:45;0;0;
80396;PMS5003;69721;55.894;-3.052;2023-05-16T11:37:10;4;3;
80396;PMS5003;69721;55.894;-3.052;2023-05-16T11:39:35;7;4;
80396;PMS5003;69721;55.894;-3.052;2023-05-16T11:42:01;2;2;
80396;PMS5003;69721;55.894;-3.052;2023-05-16T11:44:26;4;2;
80396;PMS5003;69721;55.894;-3.052;2023-05-16T11:46:52;8;3;
80396;PMS5003;69721;55.894;-3.052;2023-05-16T11:49:17;2;2;
80396;PMS5003;69721;55.894;-3.052;2023-05-16T11:51:42;3;3;
80396;PMS5003;69721;55.894;-3.052;2023-05-16T11:54:08;5;3;
80396;PMS5003;69721;55.894;-3.052;2023-05-16T11:56:34;7;5;
80396;PMS5003;69721;55.894;-3.052;2023-05-16T11:58:58;2;1;
80396;PMS5003;69721;55.894;-3.052;2023-05-16T12:01:24;4;4;
80396;PMS5003;69721;55.894;-3.052;2023-05-16T12:03:54;3;3;
80396;PMS5003;69721;55.894;-3.052;2023-05-16T12:06:14;3;3;
80396;PMS5003;69721;55.894;-3.052;2023-05-16T12:11:05;7;4;
80396;PMS5003;69721;55.894;-3.052;2023-05-16T12:13:31;4;4;
80396;PMS5003;69721;55.894;-3.052;2023-05-16T12:15:56;10;4;
80396;PMS5003;69721;55.894;-3.052;2023-05-16T12:18:21;3;3;
80396;PMS5003;69721;55.894;-3.052;2023-05-16T12:20:47;4;4;
80396;PMS5003;69721;55.894;-3.052;2023-05-16T12:23:12;6;4;
80396;PMS5003;69721;55.894;-3.052;2023-05-16T12:25:38;7;5;
80396;PMS5003;69721;55.894;-3.052;2023-05-16T12:28:03;9;6;
80396;PMS5003;69721;55.894;-3.052;2023-05-16T12:30:29;3;3;
80396;PMS5003;69721;55.894;-3.052;2023-05-16T12:32:55;3;3;
80396;PMS5003;69721;55.894;-3.052;2023-05-16T12:35:19;5;5;
80396;PMS5003;69721;55.894;-3.052;2023-05-16T12:37:45;5;4;
80396;PMS5003;69721;55.894;-3.052;2023-05-16T12:40:10;7;5;
80396;PMS5003;69721;55.894;-3.052;2023-05-16T12:42:35;6;6;
80396;PMS5003;69721;55.894;-3.052;2023-05-16T12:45:01;6;6;
80396;PMS5003;69721;55.894;-3.052;2023-05-16T12:49:51;9;8;
80396;PMS5003;69721;55.894;-3.052;2023-05-16T12:52:17;6;6;
80396;PMS5003;69721;55.894;-3.052;2023-05-16T12:54:43;7;6;
80396;PMS5003;69721;55.894;-3.052;2023-05-16T12:57:07;7;6;
80396;PMS5003;69721;55.894;-3.052;2023-05-16T12:59:33;9;8;
80396;PMS5003;69721;55.894;-3.052;2023-05-16T13:01:58;8;7;
80396;PMS5003;69721;55.894;-3.052;2023-05-16T13:04:24;10;6;
80396;PMS5003;69721;55.894;-3.052;2023-05-16T13:06:49;9;7;
80396;PMS5003;69721;55.894;-3.052;2023-05-16T13:09:14;8;8;
80396;PMS5003;69721;55.894;-3.052;2023-05-16T13:11:40;6;6;
80396;PMS5003;69721;55.894;-3.052;2023-05-16T13:14:05;5;3;
80396;PMS5003;69721;55.894;-3.052;2023-05-16T13:16:31;7;6;
80396;PMS5003;69721;55.894;-3.052;2023-05-16T13:18:56;6;5;
80396;PMS5003;69721;55.894;-3.052;2023-05-16T13:21:21;6;4;
80396;PMS5003;69721;55.894;-3.052;2023-05-16T13:23:47;7;6;
80396;PMS5003;69721;55.894;-3.052;2023-05-16T13:26:12;6;5;
80396;PMS5003;69721;55.894;-3.052;2023-05-16T13:28:37;8;5;
80396;PMS5003;69721;55.894;-3.052;2023-05-16T13:31:03;6;6;
80396;PMS5003;69721;55.894;-3.052;2023-05-16T13:33:29;9;5;
80396;PMS5003;69721;55.894;-3.052;2023-05-16T13:35:55;10;8;
80396;PMS5003;69721;55.894;-3.052;2023-05-16T13:38:20;4;4;
80396;PMS5003;69721;55.894;-3.052;2023-05-16T13:40:45;5;4;
80396;PMS5003;69721;55.894;-3.052;2023-05-16T13:43:11;4;3;
80396;PMS5003;69721;55.894;-3.052;2023-05-16T13:45:37;4;4;
80396;PMS5003;69721;55.894;-3.052;2023-05-16T13:48:03;6;4;
80396;PMS5003;69721;55.894;-3.052;2023-05-16T13:50:28;6;4;
80396;PMS5003;69721;55.894;-3.052;2023-05-16T13:52:53;4;4;
80396;PMS5003;69721;55.894;-3.052;2023-05-16T13:55:18;7;6;
80396;PMS5003;69721;55.894;-3.052;2023-05-16T13:57:44;6;6;
80396;PMS5003;69721;55.894;-3.052;2023-05-16T14:00:09;7;5;
80396;PMS5003;69721;55.894;-3.052;2023-05-16T14:02:34;5;4;
80396;PMS5003;69721;55.894;-3.052;2023-05-16T14:05:00;7;5;
80396;PMS5003;69721;55.894;-3.052;2023-05-16T14:07:25;8;5;
80396;PMS5003;69721;55.894;-3.052;2023-05-16T14:09:50;2;2;
80396;PMS5003;69721;55.894;-3.052;2023-05-16T14:12:16;5;4;
80396;PMS5003;69721;55.894;-3.052;2023-05-16T14:14:41;4;4;
80396;PMS5003;69721;55.894;-3.052;2023-05-16T14:17:06;6;6;
80396;PMS5003;69721;55.894;-3.052;2023-05-16T14:19:32;7;5;
80396;PMS5003;69721;55.894;-3.052;2023-05-16T14:21:57;10;6;
80396;PMS5003;69721;55.894;-3.052;2023-05-16T14:24:22;5;4;
80396;PMS5003;69721;55.894;-3.052;2023-05-16T14:26:48;4;3;
80396;PMS5003;69721;55.894;-3.052;2023-05-16T14:29:13;2;2;
80396;PMS5003;69721;55.894;-3.052;2023-05-16T14:31:38;7;7;
80396;PMS5003;69721;55.894;-3.052;2023-05-16T14:34:04;8;5;
80396;PMS5003;69721;55.894;-3.052;2023-05-16T14:36:29;7;5;
80396;PMS5003;69721;55.894;-3.052;2023-05-16T14:38:54;7;4;
80396;PMS5003;69721;55.894;-3.052;2023-05-16T14:41:19;9;6;
80396;PMS5003;69721;55.894;-3.052;2023-05-16T14:43:46;12;9;
80396;PMS5003;69721;55.894;-3.052;2023-05-16T14:46:11;43;39;
80396;PMS5003;69721;55.894;-3.052;2023-05-16T14:48:37;27;20;
80396;PMS5003;69721;55.894;-3.052;2023-05-16T14:51:03;15;14;
80396;PMS5003;69721;55.894;-3.052;2023-05-16T14:53:27;7;5;
80396;PMS5003;69721;55.894;-3.052;2023-05-16T14:55:52;14;11;
80396;PMS5003;69721;55.894;-3.052;2023-05-16T14:58:18;7;7;
80396;PMS5003;69721;55.894;-3.052;2023-05-16T15:00:43;6;6;
80396;PMS5003;69721;55.894;-3.052;2023-05-16T15:03:09;15;13;
80396;PMS5003;69721;55.894;-3.052;2023-05-16T15:05:34;4;4;
80396;PMS5003;69721;55.894;-3.052;2023-05-16T15:07:59;5;4;
80396;PMS5003;69721;55.894;-3.052;2023-05-16T15:10:25;7;6;
80396;PMS5003;69721;55.894;-3.052;2023-05-16T15:12:51;8;8;
80396;PMS5003;69721;55.894;-3.052;2023-05-16T15:15:16;5;5;
80396;PMS5003;69721;55.894;-3.052;2023-05-16T15:17:41;7;4;
80396;PMS5003;69721;55.894;-3.052;2023-05-16T15:20:08;6;6;
80396;PMS5003;69721;55.894;-3.052;2023-05-16T15:22:32;12;10;
80396;PMS5003;69721;55.894;-3.052;2023-05-16T15:24:58;4;3;
80396;PMS5003;69721;55.894;-3.052;2023-05-16T15:27:24;13;12;
80396;PMS5003;69721;55.894;-3.052;2023-05-16T15:29:49;6;4;
80396;PMS5003;69721;55.894;-3.052;2023-05-16T15:32:14;9;7;
80396;PMS5003;69721;55.894;-3.052;2023-05-16T15:34:40;6;3;
80396;PMS5003;69721;55.894;-3.052;2023-05-16T15:37:05;9;5;
80396;PMS5003;69721;55.894;-3.052;2023-05-16T15:39:31;4;4;
80396;PMS5003;69721;55.894;-3.052;2023-05-16T15:41:58;3;3;
80396;PMS5003;69721;55.894;-3.052;2023-05-16T15:44:23;4;2;
80396;PMS5003;69721;55.894;-3.052;2023-05-16T15:46:49;4;4;
80396;PMS5003;69721;55.894;-3.052;2023-05-16T15:49:15;2;2;
80396;PMS5003;69721;55.894;-3.052;2023-05-16T15:51:40;3;3;
80396;PMS5003;69721;55.894;-3.052;2023-05-16T15:54:06;6;3;
80396;PMS5003;69721;55.894;-3.052;2023-05-16T15:56:31;3;3;
80396;PMS5003;69721;55.894;-3.052;2023-05-16T15:58:56;2;0;
80396;PMS5003;69721;55.894;-3.052;2023-05-16T16:01:21;4;4;
80396;PMS5003;69721;55.894;-3.052;2023-05-16T16:03:47;4;3;
80396;PMS5003;69721;55.894;-3.052;2023-05-16T16:06:12;3;3;
80396;PMS5003;69721;55.894;-3.052;2023-05-16T16:08:38;2;2;
80396;PMS5003;69721;55.894;-3.052;2023-05-16T16:11:03;2;2;
80396;PMS5003;69721;55.894;-3.052;2023-05-16T16:13:28;2;2;
80396;PMS5003;69721;55.894;-3.052;2023-05-16T16:15:54;2;2;
80396;PMS5003;69721;55.894;-3.052;2023-05-16T16:18:19;2;1;
80396;PMS5003;69721;55.894;-3.052;2023-05-16T16:20:45;4;2;
80396;PMS5003;69721;55.894;-3.052;2023-05-16T16:23:10;2;2;
80396;PMS5003;69721;55.894;-3.052;2023-05-16T16:25:35;2;2;
80396;PMS5003;69721;55.894;-3.052;2023-05-16T16:28:01;3;2;
80396;PMS5003;69721;55.894;-3.052;2023-05-16T16:30:26;2;2;
80396;PMS5003;69721;55.894;-3.052;2023-05-16T16:32:52;4;2;
80396;PMS5003;69721;55.894;-3.052;2023-05-16T16:35:17;3;3;